createdAt,value
2018-04-08T00:15:06.119Z,4.77
2018-04-08T00:17:32.333Z,4.43
2018-04-08T00:19:58.554Z,4.43
2018-04-08T00:22:24.749Z,5.00
2018-04-08T00:24:52.062Z,5.37
2018-04-08T00:27:18.257Z,5.00
2018-04-08T00:29:44.838Z,4.60
2018-04-08T00:32:11.963Z,4.80
2018-04-08T00:37:27.768Z,4.87
2018-04-08T00:39:54.071Z,5.03
2018-04-08T00:42:21.060Z,5.00
2018-04-08T00:44:47.332Z,4.80
2018-04-08T00:47:13.559Z,4.77
2018-04-08T00:49:40.183Z,4.97
2018-04-08T00:52:06.927Z,4.60
2018-04-08T00:54:33.199Z,5.47
2018-04-08T00:57:00.218Z,5.77
2018-04-08T00:59:27.403Z,6.00
2018-04-08T01:01:53.677Z,4.60
2018-04-08T01:04:19.849Z,5.37
2018-04-08T01:06:46.870Z,4.63
2018-04-08T01:09:13.154Z,4.80
2018-04-08T01:11:39.368Z,6.47
2018-04-08T01:14:05.960Z,6.53
2018-04-08T01:16:32.190Z,6.30
2018-04-08T01:18:58.358Z,6.00
2018-04-08T01:21:26.290Z,6.80
2018-04-08T01:23:52.522Z,6.90
2018-04-08T01:26:18.722Z,5.00
2018-04-08T01:28:45.886Z,5.30
2018-04-08T01:31:12.074Z,5.60
2018-04-08T01:33:38.285Z,6.13
2018-04-08T01:36:04.519Z,5.77
2018-04-08T01:48:16.496Z,5.60
2018-04-08T01:50:42.674Z,5.57
2018-04-08T01:53:09.594Z,6.10
2018-04-08T01:55:35.793Z,5.90
2018-04-08T01:58:02.030Z,5.90
2018-04-08T02:00:29.040Z,7.03
2018-04-08T02:02:55.207Z,6.30
2018-04-08T02:05:21.403Z,5.80
2018-04-08T02:07:48.344Z,5.50
2018-04-08T02:10:14.927Z,4.70
2018-04-08T02:12:41.967Z,5.93
2018-04-08T02:15:08.162Z,5.67
2018-04-08T02:17:35.098Z,5.37
2018-04-08T02:20:01.325Z,5.00
2018-04-08T02:22:27.545Z,5.30
2018-04-08T02:24:53.811Z,5.30
2018-04-08T02:27:20.772Z,5.77
2018-04-08T02:29:46.975Z,4.77
2018-04-08T02:32:14.005Z,5.57
2018-04-08T02:34:41.306Z,6.67
2018-04-08T02:37:08.089Z,5.30
2018-04-08T02:39:34.996Z,5.30
2018-04-08T02:42:01.261Z,5.60
2018-04-08T02:44:27.801Z,6.17
2018-04-08T02:46:54.024Z,5.80
2018-04-08T02:49:20.169Z,5.53
2018-04-08T02:51:46.361Z,5.57
2018-04-08T02:54:14.046Z,6.63
2018-04-08T02:56:40.918Z,8.60
2018-04-08T02:59:08.034Z,6.53
2018-04-08T03:01:34.206Z,5.90
2018-04-08T03:04:01.134Z,5.57
2018-04-08T03:06:28.134Z,6.30
2018-04-08T03:08:54.323Z,5.30
2018-04-08T03:11:21.930Z,6.53
2018-04-08T03:13:48.154Z,5.83
2018-04-08T03:16:14.337Z,5.00
2018-04-08T03:18:41.270Z,5.47
2018-04-08T03:21:07.425Z,6.43
2018-04-08T03:23:34.430Z,5.70
2018-04-08T03:26:00.999Z,5.80
2018-04-08T03:28:27.559Z,5.30
2018-04-08T03:30:53.788Z,6.17
2018-04-08T03:33:20.366Z,6.07
2018-04-08T03:35:46.580Z,5.00
2018-04-08T03:38:12.767Z,5.70
2018-04-08T03:40:39.689Z,5.20
2018-04-08T03:43:07.422Z,5.50
2018-04-08T03:45:33.621Z,6.90
2018-04-08T03:48:00.127Z,5.20
2018-04-08T03:50:27.852Z,6.30
2018-04-08T03:52:54.128Z,5.40
2018-04-08T03:55:21.086Z,5.40
2018-04-08T03:57:48.201Z,6.33
2018-04-08T04:00:14.484Z,5.73
2018-04-08T04:02:40.717Z,5.60
2018-04-08T04:05:06.966Z,6.47
2018-04-08T04:07:33.189Z,6.97
2018-04-08T04:09:59.388Z,6.23
2018-04-08T04:12:26.298Z,6.47
2018-04-08T04:14:52.544Z,5.80
2018-04-08T04:17:19.541Z,6.90
2018-04-08T04:19:58.000Z,7.53
2018-04-08T04:22:37.239Z,7.00
2018-04-08T04:25:18.319Z,6.03
2018-04-08T04:27:45.307Z,6.60
2018-04-08T04:30:11.708Z,6.60
2018-04-08T04:32:38.680Z,6.80
2018-04-08T04:35:04.941Z,6.30
2018-04-08T04:37:31.150Z,6.00
2018-04-08T04:39:58.173Z,6.33
2018-04-08T05:26:19.852Z,7.07
2018-04-08T05:28:46.058Z,5.30
2018-04-08T05:31:12.293Z,6.53
2018-04-08T05:33:38.875Z,6.20
2018-04-08T05:36:05.820Z,6.17
2018-04-08T05:38:32.743Z,5.40
2018-04-08T05:40:59.342Z,6.97
2018-04-08T05:43:25.927Z,5.60
2018-04-08T05:45:52.115Z,6.27
2018-04-08T05:48:18.988Z,5.10
2018-04-08T05:50:45.542Z,5.70
2018-04-08T05:53:13.149Z,6.23
2018-04-08T05:55:39.759Z,5.43
2018-04-08T05:58:06.685Z,6.23
2018-04-08T06:00:33.645Z,5.80
2018-04-08T06:03:01.125Z,5.70
2018-04-08T06:05:27.360Z,6.47
2018-04-08T06:07:53.565Z,6.00
2018-04-08T06:10:20.496Z,6.90
2018-04-08T06:12:47.055Z,5.67
2018-04-08T06:15:14.535Z,7.20
2018-04-08T06:17:41.511Z,6.90
2018-04-08T06:20:07.692Z,7.50
2018-04-08T06:22:34.065Z,6.93
2018-04-08T06:25:00.650Z,7.27
2018-04-08T06:27:27.661Z,7.87
2018-04-08T06:29:55.004Z,7.30
2018-04-08T06:32:21.628Z,7.33
2018-04-08T06:34:47.843Z,6.50
2018-04-08T06:37:14.866Z,7.90
2018-04-08T06:39:41.865Z,7.77
2018-04-08T06:42:08.102Z,6.77
2018-04-08T06:44:34.741Z,7.20
2018-04-08T06:47:02.142Z,8.17
2018-04-08T06:49:29.148Z,7.13
2018-04-08T06:51:56.107Z,8.50
2018-04-08T06:54:22.407Z,9.40
2018-04-08T06:56:49.943Z,7.23
2018-04-08T06:59:16.904Z,8.13
2018-04-08T07:01:44.219Z,8.23
2018-04-08T07:04:12.141Z,8.10
2018-04-08T07:06:38.355Z,8.57
2018-04-08T07:09:04.608Z,7.60
2018-04-08T07:11:30.806Z,7.90
2018-04-08T07:13:58.066Z,7.10
2018-04-08T07:16:25.834Z,8.60
2018-04-08T07:18:53.748Z,7.90
2018-04-08T07:21:20.351Z,8.50
2018-04-08T07:23:46.630Z,8.33
2018-04-08T07:26:13.639Z,8.37
2018-04-08T07:28:39.831Z,7.73
2018-04-08T07:31:06.368Z,9.27
2018-04-08T07:33:33.280Z,8.17
2018-04-08T07:36:00.241Z,6.90
2018-04-08T07:38:27.277Z,9.73
2018-04-08T07:40:55.240Z,8.03
2018-04-08T07:43:23.100Z,9.30
2018-04-08T07:45:49.678Z,8.23
2018-04-08T07:48:18.298Z,9.37
2018-04-08T07:50:44.758Z,7.97
2018-04-08T07:53:11.002Z,7.70
2018-04-08T07:55:37.227Z,8.63
2018-04-08T07:58:04.198Z,7.70
2018-04-08T08:00:30.418Z,8.10
2018-04-08T08:02:58.372Z,7.63
2018-04-08T08:05:25.345Z,9.10
2018-04-08T08:07:52.262Z,8.67
2018-04-08T08:10:19.263Z,8.17
2018-04-08T08:12:45.483Z,7.70
2018-04-08T08:15:11.860Z,7.47
2018-04-08T08:17:38.629Z,9.20
2018-04-08T08:20:07.106Z,8.43
2018-04-08T08:22:35.070Z,9.40
2018-04-08T08:25:02.559Z,9.70
2018-04-08T08:27:31.350Z,11.10
2018-04-08T08:29:58.426Z,7.70
2018-04-08T08:32:25.544Z,8.80
2018-04-08T08:44:36.896Z,8.93
2018-04-08T08:47:04.076Z,9.37
2018-04-08T08:49:30.681Z,10.40
2018-04-08T08:51:57.507Z,10.00
2018-04-08T08:54:25.238Z,10.20
2018-04-08T08:56:53.025Z,9.73
2018-04-08T08:59:20.464Z,9.73
2018-04-08T09:01:48.968Z,9.70
2018-04-08T09:04:16.334Z,10.33
2018-04-08T09:06:43.706Z,8.37
2018-04-08T09:09:10.163Z,9.97
2018-04-08T09:11:37.206Z,10.73
2018-04-08T09:14:04.479Z,9.80
2018-04-08T09:16:31.254Z,9.20
2018-04-08T09:19:02.403Z,9.07
2018-04-08T09:21:35.181Z,9.43
2018-04-08T09:24:18.234Z,9.83
2018-04-08T09:26:48.899Z,10.50
2018-04-08T09:29:16.900Z,9.83
2018-04-08T09:31:45.022Z,9.17
2018-04-08T09:34:14.064Z,10.77
2018-04-08T09:36:40.615Z,10.40
2018-04-08T09:39:08.621Z,10.90
2018-04-08T09:41:36.538Z,9.27
2018-04-08T09:44:02.822Z,8.60
2018-04-08T09:46:29.167Z,11.23
2018-04-08T09:48:56.172Z,10.53
2018-04-08T09:51:22.827Z,8.87
2018-04-08T09:53:49.778Z,12.80
2018-04-08T09:56:16.473Z,10.80
2018-04-08T09:58:45.400Z,7.93
2018-04-08T10:01:15.003Z,11.97
2018-04-08T10:03:47.988Z,10.77
2018-04-08T10:06:14.896Z,10.37
2018-04-08T10:08:41.590Z,13.70
2018-04-08T10:11:07.903Z,10.13
2018-04-08T10:13:36.027Z,9.70
2018-04-08T10:16:02.251Z,14.33
2018-04-08T10:18:29.274Z,12.17
2018-04-08T10:20:55.557Z,13.43
2018-04-08T10:23:22.214Z,14.10
2018-04-08T10:25:48.448Z,13.17
2018-04-08T10:38:00.415Z,13.20
2018-04-08T10:40:28.468Z,12.00
2018-04-08T10:42:55.541Z,12.83
2018-04-08T10:45:21.804Z,12.03
2018-04-08T10:47:49.590Z,13.43
2018-04-08T10:50:15.805Z,13.37
2018-04-08T10:52:42.481Z,13.40
2018-04-08T10:55:10.007Z,12.90
2018-04-08T10:57:36.258Z,14.03
2018-04-08T11:00:02.720Z,12.47
2018-04-08T11:02:29.445Z,14.27
2018-04-08T11:04:55.902Z,14.50
2018-04-08T11:07:23.518Z,15.30
2018-04-08T11:09:49.949Z,12.17
2018-04-08T11:12:17.607Z,15.30
2018-04-08T11:14:44.196Z,12.80
2018-04-08T11:17:11.192Z,10.73
2018-04-08T11:19:38.182Z,10.80
2018-04-08T11:22:05.555Z,10.90
2018-04-08T11:24:34.458Z,13.27
2018-04-08T11:27:00.680Z,14.03
2018-04-08T11:29:27.249Z,12.70
2018-04-08T11:31:53.514Z,13.87
2018-04-08T11:34:21.716Z,12.07
2018-04-08T11:36:47.945Z,12.23
2018-04-08T11:39:15.619Z,11.00
2018-04-08T11:41:41.882Z,12.80
2018-04-08T11:44:08.829Z,11.03
2018-04-08T11:46:35.473Z,15.27
2018-04-08T11:49:02.119Z,11.87
2018-04-08T11:51:28.418Z,11.70
2018-04-08T11:53:54.640Z,11.90
2018-04-08T11:56:21.030Z,13.13
2018-04-08T11:58:48.957Z,12.50
2018-04-08T12:01:16.179Z,11.20
2018-04-08T12:13:27.898Z,12.10
2018-04-08T12:15:54.102Z,9.87
2018-04-08T12:18:20.322Z,12.30
2018-04-08T12:20:46.661Z,10.70
2018-04-08T12:23:13.672Z,11.30
2018-04-08T12:25:40.296Z,9.67
2018-04-08T12:28:07.250Z,10.87
2018-04-08T12:30:34.790Z,9.00
2018-04-08T12:33:02.387Z,10.70
2018-04-08T12:35:29.389Z,10.30
2018-04-08T12:37:55.992Z,10.80
2018-04-08T12:40:22.206Z,9.13
2018-04-08T12:42:49.530Z,9.47
2018-04-08T12:45:16.564Z,10.60
2018-04-08T12:47:42.889Z,9.27
2018-04-08T12:50:09.131Z,9.70
2018-04-08T12:52:35.832Z,9.73
2018-04-08T12:55:02.661Z,8.67
2018-04-08T12:57:28.972Z,9.60
2018-04-08T12:59:55.196Z,10.50
2018-04-08T13:02:22.901Z,10.50
2018-04-08T13:04:49.489Z,9.10
2018-04-08T13:07:15.998Z,8.50
2018-04-08T13:09:42.840Z,7.27
2018-04-08T13:12:10.047Z,7.90
2018-04-08T13:14:36.389Z,7.20
2018-04-08T13:17:02.923Z,8.33
2018-04-08T13:19:29.242Z,7.93
2018-04-08T13:21:56.253Z,8.97
2018-04-08T13:24:22.896Z,8.23
2018-04-08T13:26:50.486Z,8.40
2018-04-08T13:29:17.259Z,7.53
2018-04-08T13:31:44.909Z,6.70
2018-04-08T13:34:12.209Z,7.47
2018-04-08T13:36:39.219Z,9.37
2018-04-08T13:39:05.894Z,8.73
2018-04-08T13:41:33.271Z,8.67
2018-04-08T13:44:01.242Z,12.20
2018-04-08T13:46:27.860Z,8.27
2018-04-08T13:48:55.431Z,10.57
2018-04-08T13:51:22.026Z,9.23
2018-04-08T13:53:48.341Z,7.47
2018-04-08T13:56:15.339Z,10.13
2018-04-08T13:58:41.500Z,9.20
2018-04-08T14:01:07.711Z,7.70
2018-04-08T14:03:34.915Z,7.93
2018-04-08T14:06:02.236Z,9.70
2018-04-08T14:08:28.882Z,11.80
2018-04-08T14:10:55.426Z,8.80
2018-04-08T14:13:23.729Z,7.40
2018-04-08T14:15:49.963Z,8.10
2018-04-08T14:18:16.465Z,7.03
2018-04-08T14:20:43.077Z,7.60
2018-04-08T14:23:09.642Z,8.10
2018-04-08T14:25:35.834Z,7.50
2018-04-08T14:28:02.078Z,7.00
2018-04-08T14:30:28.339Z,7.27
2018-04-08T14:32:54.642Z,7.10
2018-04-08T14:35:20.859Z,7.07
2018-04-08T14:37:47.831Z,7.63
2018-04-08T14:40:14.046Z,6.90
2018-04-08T14:42:40.331Z,7.63
2018-04-08T14:45:06.569Z,5.53
2018-04-08T14:47:33.275Z,5.90
2018-04-08T14:49:59.483Z,6.40
2018-04-08T14:52:25.721Z,7.37
2018-04-08T14:54:52.754Z,7.73
2018-04-08T14:57:20.137Z,6.30
2018-04-08T14:59:47.141Z,6.67
2018-04-08T15:02:13.711Z,6.40
2018-04-08T15:04:40.571Z,6.50
2018-04-08T15:07:06.828Z,6.70
2018-04-08T15:09:33.839Z,7.07
2018-04-08T15:12:00.143Z,6.00
2018-04-08T15:14:27.128Z,6.90
2018-04-08T15:16:53.390Z,6.27
2018-04-08T15:19:20.041Z,7.17
2018-04-08T15:21:47.035Z,12.83
2018-04-08T15:24:13.682Z,6.67
2018-04-08T15:26:40.255Z,6.70
2018-04-08T15:29:07.234Z,7.47
2018-04-08T15:31:33.830Z,6.07
2018-04-08T15:34:00.057Z,5.40
2018-04-08T15:36:27.179Z,5.50
2018-04-08T15:38:53.766Z,5.33
2018-04-08T15:41:20.387Z,6.10
2018-04-08T15:43:47.018Z,5.83
2018-04-08T15:46:13.269Z,4.90
2018-04-08T15:48:40.638Z,5.27
2018-04-08T15:51:07.225Z,5.73
2018-04-08T15:53:33.477Z,5.30
2018-04-08T15:56:00.047Z,5.20
2018-04-08T15:58:26.306Z,5.70
2018-04-08T16:00:52.482Z,5.70
2018-04-08T16:03:19.441Z,5.40
2018-04-08T16:05:46.488Z,5.60
2018-04-08T16:08:14.054Z,5.40
2018-04-08T16:10:41.275Z,6.10
2018-04-08T16:13:07.509Z,5.27
2018-04-08T16:15:35.456Z,6.70
2018-04-08T16:18:01.775Z,5.33
2018-04-08T16:20:29.076Z,5.73
2018-04-08T16:22:56.059Z,5.50
2018-04-08T16:25:22.399Z,5.90
2018-04-08T16:27:48.690Z,5.30
2018-04-08T16:30:15.289Z,4.80
2018-04-08T16:32:41.495Z,6.10
2018-04-08T16:35:07.807Z,4.90
2018-04-08T16:37:34.599Z,5.13
2018-04-08T16:40:00.811Z,6.43
2018-04-08T16:42:27.039Z,6.17
2018-04-08T16:44:53.230Z,5.27
2018-04-08T16:47:19.550Z,7.00
2018-04-08T16:49:47.905Z,6.40
2018-04-08T16:52:14.189Z,5.80
2018-04-08T16:54:41.787Z,5.67
2018-04-08T16:57:08.734Z,5.17
2018-04-08T16:59:36.090Z,6.50
2018-04-08T17:02:02.332Z,8.60
2018-04-08T17:04:29.321Z,14.93
2018-04-08T17:06:56.261Z,15.73
2018-04-08T17:09:22.968Z,11.60
2018-04-08T17:11:49.172Z,10.87
2018-04-08T17:14:16.952Z,7.17
2018-04-08T17:16:43.955Z,8.20
2018-04-08T17:19:10.258Z,7.00
2018-04-08T17:21:37.515Z,6.70
2018-04-08T17:24:04.609Z,5.90
2018-04-08T17:26:30.813Z,5.83
2018-04-08T17:28:57.103Z,5.97
2018-04-08T17:31:25.062Z,4.90
2018-04-08T17:33:52.041Z,6.97
2018-04-08T17:36:20.350Z,5.43
2018-04-08T17:38:46.971Z,6.30
2018-04-08T17:41:13.221Z,6.20
2018-04-08T17:43:40.619Z,6.00
2018-04-08T17:46:07.580Z,6.00
2018-04-08T17:48:34.594Z,6.00
2018-04-08T17:51:01.228Z,5.40
2018-04-08T17:53:27.543Z,6.43
2018-04-08T17:55:54.893Z,7.87
2018-04-08T17:58:21.091Z,5.53
2018-04-08T18:00:48.169Z,7.60
2018-04-08T18:03:14.452Z,8.47
2018-04-08T18:05:41.442Z,7.33
2018-04-08T18:08:08.428Z,8.40
2018-04-08T18:10:34.737Z,8.20
2018-04-08T18:13:02.080Z,8.50
2018-04-08T18:15:28.379Z,6.57
2018-04-08T18:17:54.570Z,6.87
2018-04-08T18:20:21.436Z,6.97
2018-04-08T18:22:48.372Z,6.33
2018-04-08T18:25:15.310Z,5.70
2018-04-08T18:27:41.532Z,5.57
2018-04-08T18:30:07.846Z,5.50
2018-04-08T18:42:19.126Z,5.20
2018-04-08T18:44:46.098Z,5.60
2018-04-08T18:47:12.840Z,5.87
2018-04-08T18:49:40.068Z,5.27
2018-04-08T18:52:06.738Z,5.63
2018-04-08T18:54:32.983Z,5.57
2018-04-08T18:56:59.203Z,5.57
2018-04-08T18:59:25.643Z,5.07
2018-04-08T19:01:52.578Z,5.40
2018-04-08T19:04:19.890Z,6.13
2018-04-08T19:06:48.473Z,6.93
2018-04-08T19:09:15.586Z,5.60
2018-04-08T19:11:44.029Z,6.07
2018-04-08T19:14:10.594Z,7.03
2018-04-08T19:16:36.958Z,5.43
2018-04-08T19:19:03.249Z,6.13
2018-04-08T19:21:30.230Z,5.77
2018-04-08T19:23:56.930Z,6.53
2018-04-08T19:26:25.400Z,5.87
2018-04-08T19:28:51.666Z,21.48
2018-04-08T19:31:19.724Z,5.57
2018-04-08T19:33:45.951Z,6.30
2018-04-08T19:36:12.579Z,5.57
2018-04-08T19:38:39.956Z,6.00
2018-04-08T19:41:06.585Z,5.57
2018-04-08T19:43:34.042Z,4.57
2018-04-08T19:46:00.646Z,6.30
2018-04-08T19:48:30.448Z,6.37
2018-04-08T19:50:57.023Z,6.17
2018-04-08T19:53:23.652Z,6.20
2018-04-08T19:55:50.095Z,7.00
2018-04-08T19:58:19.635Z,6.70
2018-04-08T20:01:00.893Z,6.10
2018-04-08T20:03:28.059Z,7.70
2018-04-08T20:05:54.398Z,6.93
2018-04-08T20:08:21.666Z,7.40
2018-04-08T20:10:48.324Z,7.20
2018-04-08T20:13:14.533Z,6.80
2018-04-08T20:15:40.792Z,6.13
2018-04-08T20:18:07.810Z,6.33
2018-04-08T20:20:34.480Z,6.30
2018-04-08T20:23:01.133Z,7.70
2018-04-08T20:25:29.457Z,6.30
2018-04-08T20:27:55.725Z,5.83
2018-04-08T20:30:22.712Z,5.77
2018-04-08T20:32:49.295Z,6.93
2018-04-08T20:35:16.280Z,6.47
2018-04-08T20:37:43.090Z,5.70
2018-04-08T20:40:10.151Z,6.00
2018-04-08T20:42:37.147Z,5.90
2018-04-08T20:45:03.372Z,10.10
2018-04-08T20:47:29.583Z,6.43
2018-04-08T20:49:55.913Z,6.60
2018-04-08T20:52:23.439Z,5.93
2018-04-08T20:54:49.716Z,5.20
2018-04-08T20:57:16.405Z,6.13
2018-04-08T20:59:42.992Z,6.77
2018-04-08T21:02:09.273Z,5.07
2018-04-08T21:04:35.895Z,5.67
2018-04-08T21:07:02.203Z,5.80
2018-04-08T21:09:28.827Z,5.63
2018-04-08T21:11:56.029Z,5.93
2018-04-08T21:14:23.025Z,6.30
2018-04-08T21:16:49.990Z,5.10
2018-04-08T21:19:16.614Z,5.67
2018-04-08T21:21:42.825Z,6.00
2018-04-08T21:24:09.087Z,5.30
2018-04-08T21:26:36.282Z,6.40
2018-04-08T21:29:03.258Z,5.43
2018-04-08T21:31:32.034Z,4.97
2018-04-08T21:33:58.304Z,12.05
2018-04-08T21:36:24.537Z,6.57
2018-04-08T21:38:50.911Z,6.23
2018-04-08T21:41:19.434Z,8.43
2018-04-08T21:43:46.454Z,6.33
2018-04-08T21:46:12.718Z,6.37
2018-04-08T21:48:39.877Z,7.50
2018-04-08T21:51:07.111Z,5.70
2018-04-08T21:53:34.195Z,6.13
2018-04-08T21:56:01.148Z,7.03
2018-04-08T21:58:29.600Z,6.63
2018-04-08T22:00:56.439Z,6.03
2018-04-08T22:06:04.370Z,6.77
2018-04-08T22:08:30.563Z,6.27
2018-04-08T22:10:57.843Z,8.43
2018-04-08T22:13:24.760Z,5.80
2018-04-08T22:15:51.364Z,6.90
2018-04-08T22:18:18.241Z,6.73
2018-04-08T22:20:44.896Z,6.33
2018-04-08T22:23:11.950Z,8.47
2018-04-08T22:25:39.918Z,6.57
2018-04-08T22:28:06.631Z,6.93
2018-04-08T22:30:33.579Z,8.10
2018-04-08T22:33:00.234Z,7.10
2018-04-08T22:35:26.510Z,6.50
2018-04-08T22:37:52.750Z,8.00
2018-04-08T22:40:19.713Z,5.00
2018-04-08T22:42:46.684Z,6.10
2018-04-08T22:45:13.630Z,5.93
2018-04-08T22:47:39.818Z,6.60
2018-04-08T22:50:07.842Z,5.70
2018-04-08T22:52:35.580Z,5.93
2018-04-08T22:55:03.611Z,6.23
2018-04-08T22:57:31.531Z,6.40
2018-04-08T22:59:59.500Z,8.00
2018-04-08T23:02:25.702Z,5.77
2018-04-08T23:04:53.073Z,6.57
2018-04-08T23:07:20.033Z,7.50
2018-04-08T23:09:46.294Z,8.30
2018-04-08T23:12:12.498Z,6.53
2018-04-08T23:14:38.730Z,9.33
2018-04-08T23:17:05.723Z,6.70
2018-04-08T23:29:17.588Z,5.67
2018-04-08T23:31:44.515Z,5.90
2018-04-08T23:34:11.150Z,6.37
2018-04-08T23:36:40.372Z,6.20
2018-04-08T23:39:08.633Z,6.27
2018-04-08T23:41:35.629Z,7.03
2018-04-08T23:44:03.176Z,6.57
2018-04-08T23:46:30.174Z,6.83
2018-04-08T23:48:56.571Z,6.83
2018-04-08T23:51:23.200Z,8.00
2018-04-08T23:53:50.573Z,6.90
2018-04-08T23:56:17.538Z,7.17
2018-04-08T23:58:44.232Z,6.80
